createdAt,value
2019-02-15T00:00:10.794Z,71.71
2019-02-15T00:02:39.352Z,72.05
2019-02-15T00:05:07.136Z,72.25
2019-02-15T00:07:35.073Z,72.26
2019-02-15T00:10:03.140Z,72.38
2019-02-15T00:12:30.921Z,72.45
2019-02-15T00:14:58.799Z,72.64
2019-02-15T00:17:46.175Z,72.75
2019-02-15T00:20:19.834Z,72.91
2019-02-15T00:22:47.577Z,72.99
2019-02-15T00:25:15.355Z,73.11
2019-02-15T00:27:43.098Z,73.23
2019-02-15T00:30:11.594Z,73.28
2019-02-15T00:32:39.356Z,73.11
2019-02-15T00:35:07.254Z,73.00
2019-02-15T00:37:35.142Z,72.90
2019-02-15T00:40:03.112Z,72.70
2019-02-15T00:42:30.904Z,72.64
2019-02-15T00:44:58.664Z,72.62
2019-02-15T00:47:37.017Z,72.69
2019-02-15T00:50:42.938Z,72.93
2019-02-15T00:53:26.222Z,73.04
2019-02-15T00:56:22.552Z,73.02
2019-02-15T00:59:24.843Z,72.75
2019-02-15T01:02:06.123Z,72.96
2019-02-15T01:04:59.393Z,72.78
2019-02-15T01:07:37.186Z,72.88
2019-02-15T01:10:23.195Z,72.87
2019-02-15T01:12:58.273Z,72.94
2019-02-15T01:15:26.017Z,73.02
2019-02-15T01:17:53.779Z,72.82
2019-02-15T01:20:21.507Z,72.63
2019-02-15T01:22:49.453Z,72.56
2019-02-15T01:25:17.323Z,72.73
2019-02-15T01:28:16.624Z,72.17
2019-02-15T01:31:02.389Z,72.42
2019-02-15T01:33:55.839Z,72.46
2019-02-15T01:36:35.302Z,72.69
2019-02-15T01:39:19.107Z,72.81
2019-02-15T01:42:06.527Z,72.74
2019-02-15T01:44:40.476Z,72.75
2019-02-15T01:47:12.519Z,72.45
2019-02-15T01:49:40.483Z,72.87
2019-02-15T01:52:08.397Z,73.05
2019-02-15T01:54:36.324Z,72.92
2019-02-15T01:57:04.081Z,73.26
2019-02-15T01:59:32.009Z,73.32
2019-02-15T02:01:59.768Z,73.54
2019-02-15T02:04:27.717Z,73.89
2019-02-15T02:06:55.650Z,74.03
2019-02-15T02:09:23.595Z,73.94
2019-02-15T02:11:51.365Z,74.00
2019-02-15T02:14:19.320Z,74.35
2019-02-15T02:16:47.094Z,74.52
2019-02-15T02:19:14.962Z,74.63
2019-02-15T02:21:42.718Z,74.81
2019-02-15T02:24:10.703Z,74.79
2019-02-15T02:26:38.470Z,74.71
2019-02-15T02:29:06.390Z,74.43
2019-02-15T02:31:34.158Z,74.64
2019-02-15T02:34:02.061Z,74.46
2019-02-15T02:36:53.903Z,74.64
2019-02-15T02:39:22.177Z,74.59
2019-02-15T02:41:50.050Z,75.00
2019-02-15T02:44:20.895Z,74.80
2019-02-15T02:46:48.680Z,74.76
2019-02-15T02:49:16.718Z,74.71
2019-02-15T02:51:44.594Z,75.03
2019-02-15T02:54:12.417Z,75.35
2019-02-15T02:56:40.225Z,75.33
2019-02-15T02:59:08.276Z,75.39
2019-02-15T03:01:36.029Z,75.33
2019-02-15T03:04:03.973Z,75.31
2019-02-15T03:06:31.788Z,75.46
2019-02-15T03:08:59.748Z,75.45
2019-02-15T03:11:27.551Z,75.62
2019-02-15T03:13:55.335Z,75.74
2019-02-15T03:16:23.119Z,75.80
2019-02-15T03:18:50.920Z,75.62
2019-02-15T03:21:19.457Z,75.80
2019-02-15T03:23:47.490Z,75.87
2019-02-15T03:26:15.425Z,75.93
2019-02-15T03:28:43.193Z,76.03
2019-02-15T03:31:10.981Z,75.93
2019-02-15T03:33:38.752Z,75.94
2019-02-15T03:36:08.816Z,76.36
2019-02-15T03:38:50.573Z,76.77
2019-02-15T03:41:28.811Z,76.71
2019-02-15T03:43:57.370Z,76.37
2019-02-15T03:46:25.487Z,76.33
2019-02-15T03:48:53.439Z,76.46
2019-02-15T03:51:21.481Z,76.62
2019-02-15T03:53:49.241Z,76.76
2019-02-15T03:56:17.187Z,76.57
2019-02-15T03:58:45.280Z,76.62
2019-02-15T04:01:13.107Z,76.39
2019-02-15T04:03:42.673Z,76.47
2019-02-15T04:06:10.505Z,76.67
2019-02-15T04:08:38.265Z,76.98
2019-02-15T04:11:06.199Z,77.26
2019-02-15T04:13:34.001Z,77.12
2019-02-15T04:16:01.803Z,77.09
2019-02-15T04:18:29.584Z,77.17
2019-02-15T04:20:57.508Z,77.34
2019-02-15T04:23:25.261Z,77.26
2019-02-15T04:25:53.229Z,76.98
2019-02-15T04:28:21.033Z,76.89
2019-02-15T04:30:48.778Z,77.11
2019-02-15T04:33:16.536Z,77.29
2019-02-15T04:35:44.504Z,77.48
2019-02-15T04:38:12.238Z,77.23
2019-02-15T04:40:40.206Z,77.08
2019-02-15T04:43:07.996Z,77.14
2019-02-15T04:45:35.924Z,77.44
2019-02-15T04:48:03.698Z,77.82
2019-02-15T04:50:31.708Z,77.79
2019-02-15T04:52:59.450Z,77.98
2019-02-15T04:55:27.262Z,77.80
2019-02-15T04:57:55.053Z,77.73
2019-02-15T05:00:23.026Z,77.83
2019-02-15T05:02:50.792Z,77.75
2019-02-15T05:05:18.783Z,77.75
2019-02-15T05:07:46.555Z,77.97
2019-02-15T05:10:14.528Z,77.91
2019-02-15T05:12:42.286Z,77.58
2019-02-15T05:15:10.126Z,77.76
2019-02-15T05:17:38.037Z,77.44
2019-02-15T05:20:06.065Z,77.75
2019-02-15T05:22:34.084Z,77.82
2019-02-15T05:25:01.859Z,77.80
2019-02-15T05:27:29.586Z,77.91
2019-02-15T05:29:57.407Z,78.09
2019-02-15T05:32:25.174Z,77.89
2019-02-15T05:34:52.944Z,77.88
2019-02-15T05:37:20.931Z,77.81
2019-02-15T05:39:48.726Z,78.06
2019-02-15T05:42:16.497Z,78.15
2019-02-15T05:44:44.277Z,78.29
2019-02-15T05:47:12.055Z,78.66
2019-02-15T05:49:39.860Z,78.67
2019-02-15T05:52:07.636Z,78.56
2019-02-15T05:54:35.403Z,78.61
2019-02-15T05:57:03.436Z,78.67
2019-02-15T05:59:31.185Z,78.73
2019-02-15T06:01:58.980Z,78.70
2019-02-15T06:04:26.755Z,78.95
2019-02-15T06:06:54.562Z,79.07
2019-02-15T06:09:22.352Z,78.86
2019-02-15T06:11:50.113Z,79.09
2019-02-15T06:14:18.121Z,79.27
2019-02-15T06:16:45.911Z,80.42
2019-02-15T06:19:13.685Z,80.09
2019-02-15T06:21:41.442Z,79.70
2019-02-15T06:24:09.230Z,78.81
2019-02-15T06:26:37.037Z,78.40
2019-02-15T06:29:04.837Z,78.55
2019-02-15T06:31:32.680Z,78.39
2019-02-15T06:34:00.478Z,78.34
2019-02-15T06:36:32.804Z,78.33
2019-02-15T06:39:00.597Z,78.45
2019-02-15T06:41:31.046Z,78.16
2019-02-15T06:43:58.844Z,77.98
2019-02-15T06:46:26.633Z,78.19
2019-02-15T06:48:54.630Z,78.00
2019-02-15T06:51:22.425Z,78.39
2019-02-15T06:53:50.487Z,78.22
2019-02-15T06:56:18.299Z,78.09
2019-02-15T06:59:11.574Z,78.10
2019-02-15T07:01:44.752Z,78.00
2019-02-15T07:04:47.246Z,77.80
2019-02-15T07:07:15.003Z,77.59
2019-02-15T07:09:42.778Z,77.39
2019-02-15T07:12:10.738Z,77.16
2019-02-15T07:14:38.523Z,76.70
2019-02-15T07:17:06.459Z,76.68
2019-02-15T07:19:37.146Z,76.87
2019-02-15T07:22:04.910Z,76.70
2019-02-15T07:24:32.742Z,76.62
2019-02-15T07:27:00.667Z,76.08
2019-02-15T07:29:28.615Z,75.71
2019-02-15T07:31:56.381Z,75.64
2019-02-15T07:34:24.158Z,75.35
2019-02-15T07:36:52.127Z,75.04
2019-02-15T07:39:20.103Z,75.39
2019-02-15T07:41:48.049Z,75.23
2019-02-15T07:44:15.875Z,75.02
2019-02-15T07:46:43.667Z,74.84
2019-02-15T07:49:11.427Z,74.26
2019-02-15T07:51:39.195Z,74.11
2019-02-15T07:54:07.162Z,74.16
2019-02-15T07:56:34.923Z,72.98
2019-02-15T07:59:02.690Z,73.51
2019-02-15T08:01:30.493Z,73.64
2019-02-15T08:03:58.250Z,73.63
2019-02-15T08:06:26.039Z,73.31
2019-02-15T08:08:53.825Z,73.05
2019-02-15T08:11:21.621Z,72.79
2019-02-15T08:13:49.376Z,72.70
2019-02-15T08:16:17.167Z,72.11
2019-02-15T08:18:45.107Z,72.12
2019-02-15T08:21:13.322Z,71.66
2019-02-15T08:23:41.168Z,70.89
2019-02-15T08:26:08.985Z,70.47
2019-02-15T08:28:36.763Z,70.31
2019-02-15T08:31:04.662Z,70.18
2019-02-15T08:33:32.453Z,69.90
2019-02-15T08:36:00.276Z,69.90
2019-02-15T08:38:28.293Z,69.37
2019-02-15T08:40:56.246Z,69.04
2019-02-15T08:43:24.038Z,68.73
2019-02-15T08:46:00.363Z,68.45
2019-02-15T08:48:21.532Z,68.07
2019-02-15T08:50:49.360Z,68.28
2019-02-15T08:53:17.185Z,67.33
2019-02-15T08:55:44.952Z,67.37
2019-02-15T08:58:12.739Z,66.96
2019-02-15T09:00:40.704Z,66.88
2019-02-15T09:03:08.491Z,66.96
2019-02-15T09:05:36.397Z,67.32
2019-02-15T09:08:04.186Z,66.77
2019-02-15T09:10:31.967Z,66.55
2019-02-15T09:12:59.733Z,66.52
2019-02-15T09:15:27.811Z,66.73
2019-02-15T09:17:55.591Z,66.72
2019-02-15T09:20:23.385Z,66.12
2019-02-15T09:22:51.215Z,65.86
2019-02-15T09:25:21.027Z,64.34
2019-02-15T09:28:14.456Z,57.20
2019-02-15T09:30:43.929Z,49.61
2019-02-15T09:33:11.737Z,45.73
2019-02-15T09:35:39.553Z,47.17
2019-02-15T09:38:07.364Z,49.54
2019-02-15T09:40:35.116Z,52.62
2019-02-15T09:43:02.935Z,53.91
2019-02-15T09:45:30.720Z,55.01
2019-02-15T09:47:58.585Z,55.65
2019-02-15T09:50:26.449Z,56.67
2019-02-15T09:52:54.261Z,57.11
2019-02-15T09:55:22.079Z,56.95
2019-02-15T09:57:49.909Z,53.33
2019-02-15T10:00:17.641Z,46.22
2019-02-15T10:02:45.509Z,39.51
2019-02-15T10:05:13.310Z,36.87
2019-02-15T10:07:42.067Z,36.61
2019-02-15T10:10:09.886Z,38.56
2019-02-15T10:12:37.697Z,41.22
2019-02-15T10:15:05.735Z,43.16
2019-02-15T10:17:33.615Z,45.49
2019-02-15T10:20:01.403Z,46.96
2019-02-15T10:22:29.248Z,48.31
2019-02-15T10:24:57.010Z,49.55
2019-02-15T10:27:24.776Z,50.77
2019-02-15T10:29:52.598Z,50.27
2019-02-15T10:32:22.427Z,43.13
2019-02-15T10:34:50.348Z,33.93
2019-02-15T10:37:18.212Z,26.62
2019-02-15T10:39:46.053Z,23.13
2019-02-15T10:42:13.893Z,21.19
2019-02-15T10:44:41.720Z,19.68
2019-02-15T10:47:14.185Z,19.98
2019-02-15T10:49:41.666Z,22.68
2019-02-15T10:52:09.466Z,25.61
2019-02-15T10:54:37.256Z,28.58
2019-02-15T10:57:05.052Z,31.38
2019-02-15T10:59:32.878Z,29.53
2019-02-15T11:02:00.676Z,26.30
2019-02-15T11:04:28.508Z,23.52
2019-02-15T11:06:56.318Z,21.33
2019-02-15T11:09:24.140Z,20.13
2019-02-15T11:11:51.972Z,19.91
2019-02-15T11:14:19.842Z,22.58
2019-02-15T11:16:47.670Z,25.73
2019-02-15T11:19:15.488Z,29.03
2019-02-15T11:21:43.330Z,31.69
2019-02-15T11:24:11.233Z,33.32
2019-02-15T11:26:39.071Z,35.53
2019-02-15T11:29:06.865Z,36.75
2019-02-15T11:31:34.638Z,38.89
2019-02-15T11:34:02.529Z,40.37
2019-02-15T11:36:30.423Z,41.03
2019-02-15T11:38:58.671Z,41.58
2019-02-15T11:41:26.494Z,42.35
2019-02-15T11:43:54.301Z,43.06
2019-02-15T11:46:22.086Z,43.39
2019-02-15T11:48:49.961Z,41.57
2019-02-15T11:51:17.834Z,39.30
2019-02-15T11:53:45.760Z,37.24
2019-02-15T11:56:13.484Z,36.13
2019-02-15T11:58:41.424Z,36.00
2019-02-15T12:01:09.211Z,36.50
2019-02-15T12:03:37.052Z,37.49
2019-02-15T12:06:05.130Z,38.07
2019-02-15T12:08:32.843Z,39.32
2019-02-15T12:11:00.679Z,38.78
2019-02-15T12:13:28.435Z,39.40
2019-02-15T12:15:56.218Z,39.64
2019-02-15T12:18:24.011Z,38.13
2019-02-15T12:20:51.843Z,37.01
2019-02-15T12:23:19.644Z,36.24
2019-02-15T12:25:47.466Z,35.01
2019-02-15T12:28:15.252Z,33.90
2019-02-15T12:30:43.095Z,34.03
2019-02-15T12:33:10.944Z,35.24
2019-02-15T12:35:38.799Z,36.76
2019-02-15T12:38:06.574Z,37.93
2019-02-15T12:40:34.328Z,39.48
2019-02-15T12:43:02.135Z,39.96
2019-02-15T12:45:30.177Z,41.11
2019-02-15T12:47:57.968Z,41.05
2019-02-15T12:50:25.860Z,41.67
2019-02-15T12:52:53.901Z,41.94
2019-02-15T12:55:21.762Z,42.94
2019-02-15T12:57:49.600Z,42.76
2019-02-15T13:00:17.392Z,42.18
2019-02-15T13:02:45.178Z,41.91
2019-02-15T13:05:13.353Z,42.22
2019-02-15T13:07:41.134Z,42.66
2019-02-15T13:10:10.129Z,42.87
2019-02-15T13:12:37.926Z,43.11
2019-02-15T13:15:06.501Z,42.79
2019-02-15T13:17:34.284Z,42.29
2019-02-15T13:20:05.337Z,42.75
2019-02-15T13:22:33.255Z,43.08
2019-02-15T13:25:03.775Z,42.56
2019-02-15T13:27:31.615Z,42.19
2019-02-15T13:29:59.504Z,41.95
2019-02-15T13:32:27.292Z,41.52
2019-02-15T13:34:55.131Z,42.45
2019-02-15T13:37:22.937Z,41.56
2019-02-15T13:39:51.119Z,41.72
2019-02-15T13:42:18.977Z,41.78
2019-02-15T13:44:46.979Z,41.61
2019-02-15T13:47:14.770Z,40.40
2019-02-15T13:49:42.815Z,40.95
2019-02-15T13:52:10.587Z,41.58
2019-02-15T13:54:38.578Z,42.24
2019-02-15T13:57:06.531Z,40.94
2019-02-15T13:59:34.311Z,40.57
2019-02-15T14:02:02.073Z,40.84
2019-02-15T14:04:29.874Z,41.08
2019-02-15T14:06:57.721Z,41.42
2019-02-15T14:09:25.511Z,39.99
2019-02-15T14:11:53.301Z,40.35
2019-02-15T14:14:21.065Z,40.19
2019-02-15T14:16:48.899Z,40.05
2019-02-15T14:19:16.924Z,39.28
2019-02-15T14:21:44.878Z,39.74
2019-02-15T14:24:12.664Z,38.21
2019-02-15T14:26:40.450Z,34.83
2019-02-15T14:29:08.208Z,30.34
2019-02-15T14:31:35.919Z,27.15
2019-02-15T14:34:03.690Z,23.98
2019-02-15T14:36:31.440Z,20.99
2019-02-15T14:38:59.228Z,19.55
2019-02-15T14:41:26.986Z,18.72
2019-02-15T14:43:54.748Z,18.85
2019-02-15T14:46:22.790Z,18.80
2019-02-15T14:48:50.609Z,16.83
2019-02-15T14:51:18.342Z,16.94
2019-02-15T14:53:46.420Z,16.94
2019-02-15T14:56:14.211Z,17.11
2019-02-15T14:58:42.038Z,16.55
2019-02-15T15:01:09.785Z,16.36
2019-02-15T15:03:37.761Z,16.43
2019-02-15T15:06:05.500Z,16.17
2019-02-15T15:08:33.297Z,16.30
2019-02-15T15:11:02.038Z,16.16
2019-02-15T15:13:29.856Z,16.28
2019-02-15T15:15:57.853Z,15.95
2019-02-15T15:18:25.867Z,15.93
2019-02-15T15:20:53.688Z,16.64
2019-02-15T15:23:21.465Z,17.19
2019-02-15T15:25:49.247Z,17.25
2019-02-15T15:28:17.000Z,17.71
2019-02-15T15:30:44.782Z,18.43
2019-02-15T15:33:12.608Z,19.54
2019-02-15T15:35:40.434Z,20.56
2019-02-15T15:38:08.300Z,21.38
2019-02-15T15:40:36.033Z,22.32
2019-02-15T15:43:03.899Z,23.46
2019-02-15T15:45:31.676Z,24.77
2019-02-15T15:47:59.476Z,26.16
2019-02-15T15:50:27.289Z,27.29
2019-02-15T15:52:55.023Z,29.03
2019-02-15T15:55:22.856Z,30.59
2019-02-15T15:57:50.711Z,31.88
2019-02-15T16:00:18.533Z,33.34
2019-02-15T16:02:46.327Z,33.55
2019-02-15T16:05:14.170Z,34.59
2019-02-15T16:07:43.715Z,35.85
2019-02-15T16:10:11.793Z,38.31
2019-02-15T16:12:39.634Z,39.33
2019-02-15T16:15:08.723Z,40.38
2019-02-15T16:17:36.527Z,41.10
2019-02-15T16:20:05.139Z,41.54
2019-02-15T16:22:33.267Z,42.03
2019-02-15T16:25:01.046Z,42.40
2019-02-15T16:27:28.820Z,42.79
2019-02-15T16:29:56.637Z,43.02
2019-02-15T16:32:24.388Z,43.21
2019-02-15T16:34:52.188Z,43.44
2019-02-15T16:37:20.064Z,43.78
2019-02-15T16:39:47.865Z,44.27
2019-02-15T16:42:16.885Z,45.17
2019-02-15T16:44:47.207Z,45.86
2019-02-15T16:47:14.995Z,46.62
2019-02-15T16:49:42.846Z,47.21
2019-02-15T16:52:13.646Z,48.14
2019-02-15T16:54:41.427Z,48.81
2019-02-15T16:57:09.299Z,47.59
2019-02-15T16:59:37.149Z,47.53
2019-02-15T17:02:04.934Z,47.75
2019-02-15T17:04:32.703Z,49.06
2019-02-15T17:07:00.490Z,49.39
2019-02-15T17:09:28.265Z,49.71
2019-02-15T17:11:56.093Z,50.27
2019-02-15T17:14:23.851Z,50.81
2019-02-15T17:16:51.625Z,51.32
2019-02-15T17:19:19.412Z,51.08
2019-02-15T17:21:47.253Z,52.13
2019-02-15T17:24:15.006Z,51.96
2019-02-15T17:26:42.806Z,52.30
2019-02-15T17:29:10.607Z,52.46
2019-02-15T17:31:38.396Z,52.82
2019-02-15T17:34:06.182Z,52.88
2019-02-15T17:36:34.007Z,53.40
2019-02-15T17:39:01.770Z,53.89
2019-02-15T17:41:29.574Z,54.43
2019-02-15T17:43:57.335Z,54.77
2019-02-15T17:46:25.130Z,55.20
2019-02-15T17:49:00.578Z,55.22
2019-02-15T17:51:22.639Z,55.17
2019-02-15T17:53:50.749Z,54.63
2019-02-15T17:56:18.561Z,54.18
2019-02-15T17:58:46.393Z,53.89
2019-02-15T18:01:14.195Z,53.53
2019-02-15T18:03:42.008Z,53.34
2019-02-15T18:06:09.786Z,53.39
2019-02-15T18:08:37.607Z,54.31
2019-02-15T18:11:05.372Z,54.78
2019-02-15T18:13:33.157Z,54.65
2019-02-15T18:16:01.739Z,55.40
2019-02-15T18:18:29.526Z,55.93
2019-02-15T18:20:57.348Z,56.29
2019-02-15T18:23:27.280Z,56.57
2019-02-15T18:25:55.052Z,56.88
2019-02-15T18:28:22.893Z,57.17
2019-02-15T18:30:50.685Z,57.47
2019-02-15T18:33:18.487Z,57.30
2019-02-15T18:35:46.278Z,57.40
2019-02-15T18:38:14.071Z,57.83
2019-02-15T18:40:41.815Z,57.53
2019-02-15T18:43:09.613Z,57.23
2019-02-15T18:45:37.374Z,57.26
2019-02-15T18:48:05.166Z,57.31
2019-02-15T18:50:32.932Z,57.66
2019-02-15T18:53:00.832Z,58.54
2019-02-15T18:55:28.600Z,59.18
2019-02-15T18:57:56.386Z,59.68
2019-02-15T19:00:24.188Z,60.71
2019-02-15T19:02:51.967Z,60.93
2019-02-15T19:05:19.721Z,61.20
2019-02-15T19:07:47.544Z,61.54
2019-02-15T19:10:16.757Z,62.06
2019-02-15T19:12:44.528Z,62.64
2019-02-15T19:15:13.297Z,62.90
2019-02-15T19:17:41.045Z,63.05
2019-02-15T19:20:09.793Z,63.24
2019-02-15T19:22:37.669Z,63.37
2019-02-15T19:25:07.233Z,63.68
2019-02-15T19:27:35.005Z,64.23
2019-02-15T19:30:04.985Z,64.53
2019-02-15T19:32:32.769Z,64.56
2019-02-15T19:35:00.569Z,64.94
2019-02-15T19:37:28.352Z,65.48
2019-02-15T19:39:56.243Z,65.75
2019-02-15T19:42:24.237Z,65.72
2019-02-15T19:44:52.050Z,65.94
2019-02-15T19:47:21.028Z,65.93
2019-02-15T19:49:48.923Z,66.06
2019-02-15T19:52:16.691Z,66.18
2019-02-15T19:54:44.806Z,66.29
2019-02-15T19:57:12.585Z,66.50
2019-02-15T19:59:40.619Z,66.57
2019-02-15T20:02:08.405Z,66.66
2019-02-15T20:04:36.284Z,66.92
2019-02-15T20:07:04.334Z,67.11
2019-02-15T20:09:32.059Z,67.38
2019-02-15T20:11:59.837Z,68.00
2019-02-15T20:14:27.605Z,68.02
2019-02-15T20:16:55.431Z,67.88
2019-02-15T20:19:23.216Z,67.70
2019-02-15T20:21:51.042Z,67.87
2019-02-15T20:24:18.880Z,68.02
2019-02-15T20:26:46.707Z,67.89
2019-02-15T20:29:14.631Z,67.78
2019-02-15T20:31:42.562Z,67.29
2019-02-15T20:34:10.311Z,67.42
2019-02-15T20:36:38.106Z,67.57
2019-02-15T20:39:05.903Z,67.09
2019-02-15T20:41:33.693Z,66.67
2019-02-15T20:44:01.535Z,66.53
2019-02-15T20:46:30.227Z,66.66
2019-02-15T20:49:04.728Z,66.88
2019-02-15T20:51:27.685Z,67.03
2019-02-15T20:53:55.482Z,66.84
2019-02-15T20:56:23.293Z,66.69
2019-02-15T20:58:51.111Z,66.58
2019-02-15T21:01:18.912Z,66.25
2019-02-15T21:03:46.686Z,66.11
2019-02-15T21:06:14.789Z,66.49
2019-02-15T21:08:42.554Z,66.77
2019-02-15T21:11:10.423Z,66.65
2019-02-15T21:13:38.264Z,66.90
2019-02-15T21:16:06.081Z,67.18
2019-02-15T21:18:33.902Z,67.69
2019-02-15T21:21:01.719Z,68.39
2019-02-15T21:23:29.574Z,68.61
2019-02-15T21:25:57.411Z,68.32
2019-02-15T21:28:25.250Z,68.42
2019-02-15T21:30:53.045Z,68.58
2019-02-15T21:33:20.818Z,68.17
2019-02-15T21:35:48.668Z,68.69
2019-02-15T21:38:16.432Z,68.91
2019-02-15T21:40:44.285Z,69.08
2019-02-15T21:43:12.082Z,69.34
2019-02-15T21:45:39.892Z,69.34
2019-02-15T21:48:07.705Z,69.99
2019-02-15T21:50:35.483Z,69.80
2019-02-15T21:53:03.251Z,69.77
2019-02-15T21:55:31.049Z,70.29
2019-02-15T21:58:01.613Z,70.11
2019-02-15T22:00:28.673Z,69.79
2019-02-15T22:02:56.472Z,69.99
2019-02-15T22:05:24.273Z,70.36
2019-02-15T22:07:52.096Z,70.49
2019-02-15T22:10:19.898Z,70.81
2019-02-15T22:12:47.718Z,70.98
2019-02-15T22:15:15.529Z,71.11
2019-02-15T22:17:43.305Z,71.26
2019-02-15T22:20:11.806Z,69.52
2019-02-15T22:22:39.602Z,68.68
2019-02-15T22:25:07.577Z,69.19
2019-02-15T22:27:35.381Z,68.94
2019-02-15T22:30:04.588Z,69.46
2019-02-15T22:32:32.649Z,68.79
2019-02-15T22:35:07.864Z,69.02
2019-02-15T22:37:35.755Z,69.83
2019-02-15T22:40:27.044Z,70.00
2019-02-15T22:42:55.080Z,69.86
2019-02-15T22:45:22.820Z,69.93
2019-02-15T22:47:50.571Z,69.92
2019-02-15T22:50:18.399Z,69.38
2019-02-15T22:52:46.157Z,69.81
2019-02-15T22:55:13.914Z,70.22
2019-02-15T22:57:41.706Z,71.09
2019-02-15T23:00:23.095Z,70.24
2019-02-15T23:02:50.835Z,69.35
2019-02-15T23:05:18.574Z,68.12
2019-02-15T23:07:46.542Z,64.94
2019-02-15T23:10:14.536Z,64.34
2019-02-15T23:12:42.274Z,64.84
2019-02-15T23:15:10.252Z,65.18
2019-02-15T23:17:38.232Z,65.44
2019-02-15T23:20:06.054Z,64.41
2019-02-15T23:22:33.985Z,64.21
2019-02-15T23:25:01.763Z,63.98
2019-02-15T23:27:29.487Z,64.18
2019-02-15T23:29:57.278Z,64.94
2019-02-15T23:32:25.210Z,65.64
2019-02-15T23:34:53.019Z,65.46
2019-02-15T23:37:20.974Z,65.65
2019-02-15T23:39:48.792Z,64.35
2019-02-15T23:42:16.550Z,62.59
2019-02-15T23:44:44.293Z,62.52
2019-02-15T23:47:12.037Z,62.15
2019-02-15T23:49:39.776Z,62.93
2019-02-15T23:52:07.487Z,63.03
2019-02-15T23:54:35.314Z,62.55
2019-02-15T23:57:03.211Z,62.54
2019-02-15T23:59:31.004Z,62.66
